PWSweather.com
Personal Weather Stations
Station Observations
COONRAPIDS
Minneapolis, MN 55433

Minneapolis, MN 55433

Lat: 45.187721, Lon: -93.36828

Elevation: 898

Station Type: Davis Vantage Pro 2

Latest ConditionsUpdated 5:50:00 PM CST Sunday, Nov 18, 2018
Currently Today's Max Today's Min Today's Average
Temperature 24.3°F-4.3°C 28.2°F-2.1°C 8.8°F-12.9°C 17.4°F-8.1°C
Dew Point 14.2°F-9.9°C 14.3°F-9.8°C 2.6°F-16.3°C 8.3°F-13.2°C
Winds Calm Calm 5.8 mph -9.3 kmh - - 1.2 mph 1.9 kmh
Wind Gusts -- 10.4 mph16.7 kmh - -
Humidity 65% 79% 53% 68%
Pressure 30.09 in1019.0 mb 30.43 in1030.5 mb 30.09 in1019.0 mb -
Hour Temp Dew Point Humidity Winds Wind Gusts Pressure Precip Precip Rate Daily Precip Total
05:50 PM 24.3°F-4.3°C 14.2°F-9.9°C 65% Calm Calm -- 30.09 in1019.0 mb - 0.00 in0.0 mm 0.00 in0.0 mm
05:40 PM 24.4°F-4.2°C 14.3°F-9.8°C 65% Calm Calm -- 30.09 in1019.0 mb - 0.00 in0.0 mm 0.00 in0.0 mm
05:30 PM 24.5°F-4.2°C 14.1°F-9.9°C 64% Calm Calm -- 30.09 in1019.0 mb - 0.00 in0.0 mm 0.00 in0.0 mm
05:20 PM 24.7°F-4.1°C 13.9°F-10.1°C 63% Calm Calm -- 30.09 in1019.0 mb - 0.00 in0.0 mm 0.00 in0.0 mm
05:10 PM 24.8°F-4.0°C 14.0°F-10.0°C 63% Calm Calm -- 30.09 in1019.0 mb - 0.00 in0.0 mm 0.00 in0.0 mm
05:00 PM 25.1°F-3.8°C 13.9°F-10.1°C 62% Calm Calm -- 30.09 in1019.0 mb - 0.00 in0.0 mm 0.00 in0.0 mm
04:50 PM 25.3°F-3.7°C 14.1°F-9.9°C 62% Calm Calm -- 30.09 in1019.0 mb - 0.00 in0.0 mm 0.00 in0.0 mm
04:40 PM 25.5°F-3.6°C 13.9°F-10.1°C 61% 1.2 mph S1.9 kmh S 3.5 mph5.6 kmh 30.09 in1019.0 mb - 0.00 in0.0 mm 0.00 in0.0 mm
04:30 PM 25.5°F-3.6°C 14.3°F-9.8°C 62% 2.3 mph S3.7 kmh S 5.8 mph9.3 kmh 30.09 in1019.0 mb - 0.00 in0.0 mm 0.00 in0.0 mm
04:20 PM 25.4°F-3.7°C 13.8°F-10.1°C 61% 1.2 mph S1.9 kmh S 3.5 mph5.6 kmh 30.09 in1019.0 mb - 0.00 in0.0 mm 0.00 in0.0 mm
04:10 PM 25.4°F-3.7°C 13.5°F-10.3°C 60% 2.3 mph S3.7 kmh S 5.8 mph9.3 kmh 30.10 in1019.3 mb - 0.00 in0.0 mm 0.00 in0.0 mm
04:00 PM 25.8°F-3.4°C 13.4°F-10.3°C 59% Calm Calm 3.5 mph5.6 kmh 30.10 in1019.3 mb - 0.00 in0.0 mm 0.00 in0.0 mm
03:50 PM 26.0°F-3.3°C 13.6°F-10.2°C 59% 1.2 mph SW1.9 kmh SW 3.5 mph5.6 kmh 30.10 in1019.3 mb - 0.00 in0.0 mm 0.00 in0.0 mm
03:40 PM 26.1°F-3.3°C 13.3°F-10.4°C 58% 4.6 mph SSW7.4 kmh SSW 5.8 mph9.3 kmh 30.10 in1019.3 mb - 0.00 in0.0 mm 0.00 in0.0 mm
03:30 PM 26.5°F-3.1°C 13.7°F-10.2°C 58% 1.2 mph S1.9 kmh S 4.6 mph7.4 kmh 30.11 in1019.6 mb - 0.00 in0.0 mm 0.00 in0.0 mm
03:20 PM 26.9°F-2.8°C 12.9°F-10.6°C 55% 4.6 mph SSW7.4 kmh SSW 5.8 mph9.3 kmh 30.11 in1019.6 mb - 0.00 in0.0 mm 0.00 in0.0 mm
03:10 PM 27.5°F-2.5°C 13.4°F-10.3°C 55% 2.3 mph S3.7 kmh S 3.5 mph5.6 kmh 30.11 in1019.6 mb - 0.00 in0.0 mm 0.00 in0.0 mm
03:00 PM 27.7°F-2.4°C 13.6°F-10.2°C 55% 2.3 mph S3.7 kmh S 3.5 mph5.6 kmh 30.11 in1019.6 mb - 0.00 in0.0 mm 0.00 in0.0 mm
02:50 PM 27.8°F-2.3°C 13.3°F-10.4°C 54% 2.3 mph S3.7 kmh S 5.8 mph9.3 kmh 30.11 in1019.6 mb - 0.00 in0.0 mm 0.00 in0.0 mm
02:40 PM 28.2°F-2.1°C 13.2°F-10.4°C 53% 2.3 mph S3.7 kmh S 4.6 mph7.4 kmh 30.12 in1020.0 mb - 0.00 in0.0 mm 0.00 in0.0 mm
02:30 PM 28.0°F-2.2°C 13.4°F-10.3°C 54% Calm Calm -- 30.12 in1020.0 mb - 0.00 in0.0 mm 0.00 in0.0 mm
02:20 PM 28.2°F-2.1°C 13.7°F-10.2°C 54% 2.3 mph SSW3.7 kmh SSW 4.6 mph7.4 kmh 30.12 in1020.0 mb - 0.00 in0.0 mm 0.00 in0.0 mm
02:10 PM 27.8°F-2.3°C 14.1°F-9.9°C 56% 3.5 mph SSW5.6 kmh SSW 5.8 mph9.3 kmh 30.12 in1020.0 mb - 0.00 in0.0 mm 0.00 in0.0 mm
02:00 PM 27.5°F-2.5°C 13.8°F-10.1°C 56% 3.5 mph S5.6 kmh S 4.6 mph7.4 kmh 30.13 in1020.3 mb - 0.00 in0.0 mm 0.00 in0.0 mm
01:50 PM 27.3°F-2.6°C 13.7°F-10.2°C 56% 1.2 mph SW1.9 kmh SW 3.5 mph5.6 kmh 30.14 in1020.7 mb - 0.00 in0.0 mm 0.00 in0.0 mm
01:40 PM 27.5°F-2.5°C 13.5°F-10.3°C 55% 5.8 mph S9.3 kmh S 6.9 mph11.1 kmh 30.14 in1020.7 mb - 0.00 in0.0 mm 0.00 in0.0 mm
01:30 PM 27.4°F-2.6°C 13.7°F-10.2°C 56% Calm Calm 2.3 mph3.7 kmh 30.15 in1021.0 mb - 0.00 in0.0 mm 0.00 in0.0 mm
01:20 PM 27.7°F-2.4°C 13.7°F-10.2°C 55% 3.5 mph SSW5.6 kmh SSW 4.6 mph7.4 kmh 30.15 in1021.0 mb - 0.00 in0.0 mm 0.00 in0.0 mm
01:10 PM 27.7°F-2.4°C 13.6°F-10.2°C 55% 4.6 mph S7.4 kmh S 6.9 mph11.1 kmh 30.15 in1021.0 mb - 0.00 in0.0 mm 0.00 in0.0 mm
01:00 PM 27.4°F-2.6°C 13.3°F-10.4°C 55% 4.6 mph S7.4 kmh S 5.8 mph9.3 kmh 30.16 in1021.3 mb - 0.00 in0.0 mm 0.00 in0.0 mm
12:50 PM 27.8°F-2.3°C 13.7°F-10.2°C 55% 3.5 mph SSW5.6 kmh SSW 5.8 mph9.3 kmh 30.17 in1021.7 mb - 0.00 in0.0 mm 0.00 in0.0 mm
12:40 PM 27.2°F-2.7°C 13.6°F-10.2°C 56% 1.2 mph SW1.9 kmh SW 3.5 mph5.6 kmh 30.18 in1022.0 mb - 0.00 in0.0 mm 0.00 in0.0 mm
12:30 PM 26.6°F-3.0°C 13.0°F-10.6°C 56% 1.2 mph SSW1.9 kmh SSW 3.5 mph5.6 kmh 30.18 in1022.0 mb - 0.00 in0.0 mm 0.00 in0.0 mm
12:20 PM 26.4°F-3.1°C 13.2°F-10.4°C 57% 2.3 mph SSW3.7 kmh SSW 3.5 mph5.6 kmh 30.19 in1022.4 mb - 0.00 in0.0 mm 0.00 in0.0 mm
12:10 PM 26.4°F-3.1°C 13.2°F-10.4°C 57% 2.3 mph S3.7 kmh S 4.6 mph7.4 kmh 30.20 in1022.7 mb - 0.00 in0.0 mm 0.00 in0.0 mm
12:00 PM 25.9°F-3.4°C 12.7°F-10.7°C 57% 5.8 mph SW9.3 kmh SW 8.1 mph13.0 kmh 30.20 in1022.7 mb - 0.00 in0.0 mm 0.00 in0.0 mm
11:50 AM 25.3°F-3.7°C 12.9°F-10.6°C 59% 3.5 mph SW5.6 kmh SW 4.6 mph7.4 kmh 30.20 in1022.7 mb - 0.00 in0.0 mm 0.00 in0.0 mm
11:40 AM 24.9°F-3.9°C 12.6°F-10.8°C 59% 3.5 mph SW5.6 kmh SW 4.6 mph7.4 kmh 30.21 in1023.0 mb - 0.00 in0.0 mm 0.00 in0.0 mm
11:30 AM 23.9°F-4.5°C 12.4°F-10.9°C 61% 1.2 mph S1.9 kmh S -- 30.22 in1023.4 mb - 0.00 in0.0 mm 0.00 in0.0 mm
11:20 AM 23.1°F-4.9°C 12.0°F-11.1°C 62% Calm Calm 4.6 mph7.4 kmh 30.23 in1023.7 mb - 0.00 in0.0 mm 0.00 in0.0 mm
11:10 AM 22.9°F-5.1°C 11.8°F-11.2°C 62% 2.3 mph SW3.7 kmh SW 5.8 mph9.3 kmh 30.24 in1024.0 mb - 0.00 in0.0 mm 0.00 in0.0 mm
11:00 AM 22.0°F-5.6°C 11.3°F-11.5°C 63% 2.3 mph SSW3.7 kmh SSW 4.6 mph7.4 kmh 30.24 in1024.0 mb - 0.00 in0.0 mm 0.00 in0.0 mm
10:50 AM 21.2°F-6.0°C 10.9°F-11.7°C 64% 2.3 mph SW3.7 kmh SW 5.8 mph9.3 kmh 30.24 in1024.0 mb - 0.00 in0.0 mm 0.00 in0.0 mm
10:40 AM 20.7°F-6.3°C 10.8°F-11.8°C 65% 1.2 mph SW1.9 kmh SW 3.5 mph5.6 kmh 30.25 in1024.4 mb - 0.00 in0.0 mm 0.00 in0.0 mm
10:30 AM 20.0°F-6.7°C 10.4°F-12.0°C 66% 3.5 mph SW5.6 kmh SW 6.9 mph11.1 kmh 30.25 in1024.4 mb - 0.00 in0.0 mm 0.00 in0.0 mm
10:20 AM 19.6°F-6.9°C 10.0°F-12.2°C 66% 2.3 mph SW3.7 kmh SW 9.2 mph14.8 kmh 30.26 in1024.7 mb - 0.00 in0.0 mm 0.00 in0.0 mm
10:10 AM 19.0°F-7.2°C 9.5°F-12.5°C 66% 2.3 mph WSW3.7 kmh WSW 9.2 mph14.8 kmh 30.26 in1024.7 mb - 0.00 in0.0 mm 0.00 in0.0 mm
10:00 AM 18.4°F-7.6°C 8.9°F-12.8°C 66% 1.2 mph SSW1.9 kmh SSW -- 30.26 in1024.7 mb - 0.00 in0.0 mm 0.00 in0.0 mm
09:50 AM 17.7°F-7.9°C 8.6°F-13.0°C 67% 1.2 mph SSW1.9 kmh SSW 4.6 mph7.4 kmh 30.26 in1024.7 mb - 0.00 in0.0 mm 0.00 in0.0 mm
09:40 AM 17.1°F-8.3°C 8.0°F-13.3°C 67% 4.6 mph SW7.4 kmh SW 10.4 mph16.7 kmh 30.26 in1024.7 mb - 0.00 in0.0 mm 0.00 in0.0 mm
09:30 AM 17.0°F-8.3°C 7.9°F-13.4°C 67% 2.3 mph SW3.7 kmh SW 4.6 mph7.4 kmh 30.27 in1025.1 mb - 0.00 in0.0 mm 0.00 in0.0 mm
09:20 AM 17.0°F-8.3°C 7.9°F-13.4°C 67% 3.5 mph SW5.6 kmh SW 5.8 mph9.3 kmh 30.27 in1025.1 mb - 0.00 in0.0 mm 0.00 in0.0 mm
09:10 AM 16.6°F-8.6°C 7.9°F-13.4°C 68% 3.5 mph SW5.6 kmh SW 8.1 mph13.0 kmh 30.27 in1025.1 mb - 0.00 in0.0 mm 0.00 in0.0 mm
09:00 AM 16.2°F-8.8°C 7.2°F-13.8°C 67% Calm Calm 3.5 mph5.6 kmh 30.27 in1025.1 mb - 0.00 in0.0 mm 0.00 in0.0 mm
08:50 AM 15.4°F-9.2°C 6.4°F-14.2°C 67% 1.2 mph SSW1.9 kmh SSW 2.3 mph3.7 kmh 30.28 in1025.4 mb - 0.00 in0.0 mm 0.00 in0.0 mm
08:40 AM 15.0°F-9.4°C 6.0°F-14.4°C 67% 1.2 mph SSW1.9 kmh SSW 4.6 mph7.4 kmh 30.28 in1025.4 mb - 0.00 in0.0 mm 0.00 in0.0 mm
08:30 AM 14.4°F-9.8°C 5.4°F-14.8°C 67% 1.2 mph SSW1.9 kmh SSW 2.3 mph3.7 kmh 30.28 in1025.4 mb - 0.00 in0.0 mm 0.00 in0.0 mm
08:20 AM 13.9°F-10.1°C 5.0°F-15.0°C 67% 2.3 mph SW3.7 kmh SW 3.5 mph5.6 kmh 30.29 in1025.7 mb - 0.00 in0.0 mm 0.00 in0.0 mm
08:10 AM 13.2°F-10.4°C 4.6°F-15.2°C 68% Calm Calm 4.6 mph7.4 kmh 30.29 in1025.7 mb - 0.00 in0.0 mm 0.00 in0.0 mm
08:00 AM 12.8°F-10.7°C 3.9°F-15.6°C 67% 1.2 mph S1.9 kmh S 3.5 mph5.6 kmh 30.29 in1025.7 mb - 0.00 in0.0 mm 0.00 in0.0 mm
07:50 AM 12.3°F-10.9°C 3.7°F-15.7°C 68% Calm Calm 3.5 mph5.6 kmh 30.29 in1025.7 mb - 0.00 in0.0 mm 0.00 in0.0 mm
07:40 AM 11.5°F-11.4°C 3.6°F-15.8°C 70% Calm Calm -- 30.30 in1026.1 mb - 0.00 in0.0 mm 0.00 in0.0 mm
07:30 AM 11.0°F-11.7°C 3.1°F-16.1°C 70% Calm Calm -- 30.30 in1026.1 mb - 0.00 in0.0 mm 0.00 in0.0 mm
07:20 AM 10.8°F-11.8°C 2.6°F-16.3°C 69% Calm Calm -- 30.30 in1026.1 mb - 0.00 in0.0 mm 0.00 in0.0 mm
07:10 AM 10.5°F-11.9°C 2.7°F-16.3°C 70% Calm Calm -- 30.30 in1026.1 mb - 0.00 in0.0 mm 0.00 in0.0 mm
07:00 AM 10.3°F-12.1°C 2.8°F-16.2°C 71% Calm Calm 1.2 mph1.9 kmh 30.30 in1026.1 mb - 0.00 in0.0 mm 0.00 in0.0 mm
06:50 AM 10.1°F-12.2°C 2.9°F-16.2°C 72% Calm Calm -- 30.31 in1026.4 mb - 0.00 in0.0 mm 0.00 in0.0 mm
06:40 AM 9.9°F-12.3°C 3.0°F-16.1°C 73% Calm Calm -- 30.32 in1026.8 mb - 0.00 in0.0 mm 0.00 in0.0 mm
06:30 AM 9.8°F-12.3°C 2.9°F-16.2°C 73% Calm Calm -- 30.32 in1026.8 mb - 0.00 in0.0 mm 0.00 in0.0 mm
06:20 AM 9.8°F-12.3°C 3.2°F-16.0°C 74% Calm Calm -- 30.32 in1026.8 mb - 0.00 in0.0 mm 0.00 in0.0 mm
06:10 AM 9.7°F-12.4°C 3.1°F-16.1°C 74% Calm Calm -- 30.32 in1026.8 mb - 0.00 in0.0 mm 0.00 in0.0 mm
06:00 AM 9.5°F-12.5°C 3.2°F-16.0°C 75% Calm Calm -- 30.32 in1026.8 mb - 0.00 in0.0 mm 0.00 in0.0 mm
05:50 AM 9.4°F-12.6°C 3.1°F-16.1°C 75% Calm Calm -- 30.33 in1027.1 mb - 0.00 in0.0 mm 0.00 in0.0 mm
05:40 AM 9.3°F-12.6°C 3.0°F-16.1°C 75% Calm Calm -- 30.33 in1027.1 mb - 0.00 in0.0 mm 0.00 in0.0 mm
05:30 AM 9.2°F-12.7°C 3.1°F-16.1°C 76% Calm Calm -- 30.33 in1027.1 mb - 0.00 in0.0 mm 0.00 in0.0 mm
05:20 AM 9.0°F-12.8°C 3.0°F-16.1°C 76% Calm Calm -- 30.34 in1027.4 mb - 0.00 in0.0 mm 0.00 in0.0 mm
05:10 AM 8.9°F-12.8°C 2.9°F-16.2°C 76% Calm Calm -- 30.34 in1027.4 mb - 0.00 in0.0 mm 0.00 in0.0 mm
05:00 AM 8.8°F-12.9°C 3.1°F-16.1°C 77% Calm Calm -- 30.34 in1027.4 mb - 0.00 in0.0 mm 0.00 in0.0 mm
04:50 AM 8.8°F-12.9°C 3.1°F-16.1°C 77% 1.2 mph WSW1.9 kmh WSW 5.8 mph9.3 kmh 30.35 in1027.8 mb - 0.00 in0.0 mm 0.00 in0.0 mm
04:40 AM 8.9°F-12.8°C 3.1°F-16.1°C 77% Calm Calm -- 30.35 in1027.8 mb - 0.00 in0.0 mm 0.00 in0.0 mm
04:30 AM 8.9°F-12.8°C 3.2°F-16.0°C 77% Calm Calm 3.5 mph5.6 kmh 30.35 in1027.8 mb - 0.00 in0.0 mm 0.00 in0.0 mm
04:20 AM 8.8°F-12.9°C 3.1°F-16.1°C 77% Calm Calm -- 30.35 in1027.8 mb - 0.00 in0.0 mm 0.00 in0.0 mm
04:10 AM 8.9°F-12.8°C 3.2°F-16.0°C 77% Calm Calm -- 30.36 in1028.1 mb - 0.00 in0.0 mm 0.00 in0.0 mm
04:00 AM 8.9°F-12.8°C 3.2°F-16.0°C 77% Calm Calm -- 30.36 in1028.1 mb - 0.00 in0.0 mm 0.00 in0.0 mm
03:50 AM 8.9°F-12.8°C 3.2°F-16.0°C 77% Calm Calm -- 30.36 in1028.1 mb - 0.00 in0.0 mm 0.00 in0.0 mm
03:40 AM 8.9°F-12.8°C 3.2°F-16.0°C 77% Calm Calm -- 30.37 in1028.4 mb - 0.00 in0.0 mm 0.00 in0.0 mm
03:30 AM 9.0°F-12.8°C 3.5°F-15.8°C 78% Calm Calm 3.5 mph5.6 kmh 30.37 in1028.4 mb - 0.00 in0.0 mm 0.00 in0.0 mm
03:20 AM 9.0°F-12.8°C 3.5°F-15.8°C 78% Calm Calm -- 30.38 in1028.8 mb - 0.00 in0.0 mm 0.00 in0.0 mm
03:10 AM 9.1°F-12.7°C 3.6°F-15.8°C 78% Calm Calm -- 30.38 in1028.8 mb - 0.00 in0.0 mm 0.00 in0.0 mm
03:00 AM 9.1°F-12.7°C 3.6°F-15.8°C 78% Calm Calm -- 30.38 in1028.8 mb - 0.00 in0.0 mm 0.00 in0.0 mm
02:50 AM 9.2°F-12.7°C 3.7°F-15.7°C 78% Calm Calm -- 30.38 in1028.8 mb - 0.00 in0.0 mm 0.00 in0.0 mm
02:40 AM 9.3°F-12.6°C 3.8°F-15.7°C 78% 1.2 mph SW1.9 kmh SW 2.3 mph3.7 kmh 30.39 in1029.1 mb - 0.00 in0.0 mm 0.00 in0.0 mm
02:30 AM 9.4°F-12.6°C 3.9°F-15.6°C 78% Calm Calm -- 30.39 in1029.1 mb - 0.00 in0.0 mm 0.00 in0.0 mm
02:20 AM 9.6°F-12.4°C 4.2°F-15.4°C 78% Calm Calm -- 30.39 in1029.1 mb - 0.00 in0.0 mm 0.00 in0.0 mm
02:10 AM 9.9°F-12.3°C 4.7°F-15.2°C 79% Calm Calm -- 30.39 in1029.1 mb - 0.00 in0.0 mm 0.00 in0.0 mm
02:00 AM 10.0°F-12.2°C 4.8°F-15.1°C 79% 1.2 mph WSW1.9 kmh WSW 3.5 mph5.6 kmh 30.40 in1029.5 mb - 0.00 in0.0 mm 0.00 in0.0 mm
01:50 AM 10.1°F-12.2°C 4.9°F-15.1°C 79% Calm Calm -- 30.41 in1029.8 mb - 0.00 in0.0 mm 0.00 in0.0 mm
01:40 AM 10.3°F-12.1°C 5.1°F-14.9°C 79% Calm Calm -- 30.41 in1029.8 mb - 0.00 in0.0 mm 0.00 in0.0 mm
01:30 AM 10.5°F-11.9°C 5.3°F-14.8°C 79% Calm Calm -- 30.41 in1029.8 mb - 0.00 in0.0 mm 0.00 in0.0 mm
01:20 AM 10.7°F-11.8°C 5.2°F-14.9°C 78% Calm Calm -- 30.42 in1030.1 mb - 0.00 in0.0 mm 0.00 in0.0 mm
01:10 AM 10.9°F-11.7°C 5.4°F-14.8°C 78% Calm Calm -- 30.42 in1030.1 mb - 0.00 in0.0 mm 0.00 in0.0 mm
01:00 AM 11.2°F-11.6°C 5.7°F-14.6°C 78% Calm Calm -- 30.42 in1030.1 mb - 0.00 in0.0 mm 0.00 in0.0 mm
12:50 AM 11.5°F-11.4°C 6.0°F-14.4°C 78% 1.2 mph WSW1.9 kmh WSW 2.3 mph3.7 kmh 30.42 in1030.1 mb - 0.00 in0.0 mm 0.00 in0.0 mm
12:40 AM 11.7°F-11.3°C 5.9°F-14.5°C 77% Calm Calm -- 30.42 in1030.1 mb - 0.00 in0.0 mm 0.00 in0.0 mm
12:30 AM 12.0°F-11.1°C 6.2°F-14.3°C 77% Calm Calm -- 30.42 in1030.1 mb - 0.00 in0.0 mm 0.00 in0.0 mm
12:20 AM 12.4°F-10.9°C 6.6°F-14.1°C 77% Calm Calm 3.5 mph5.6 kmh 30.42 in1030.1 mb - 0.00 in0.0 mm 0.00 in0.0 mm
12:10 AM 12.7°F-10.7°C 6.6°F-14.1°C 76% Calm Calm -- 30.43 in1030.5 mb - 0.00 in0.0 mm 0.00 in0.0 mm
12:00 AM 13.0°F-10.6°C 6.3°F-14.3°C 74% Calm Calm 2.3 mph3.7 kmh 30.43 in1030.5 mb - 0.00 in0.0 mm 0.00 in0.0 mm